KPNS/PNS METAR and TAF weather

Enter ICAO airport designator
Station Type Date Time Source
KPNS METAR 2021/07/29 02:53 UTC NOAA

KPNS 290253Z 29005KT 8SM -RA FEW120 26/24 A3000 RMK AO2 LTG DSNT SE AND S SLP159 P0006 60009 T02560244 50003


Station Type Date Time Source
KPNS Decoded METAR 2021/07/29 02:53 UTC NOAA

PENSACOLA REGIONAL AIRPORT, FL, United States (KPNS) 30-29N 087-11W 38M
Jul 28, 2021 - 10:53 PM EDT / 2021.07.29 0253 UTC
Wind: from the WNW (290 degrees) at 6 MPH (5 KT):0
Visibility: 8 mile(s):0
Sky conditions: mostly clear
Weather: light rain; Lightning observed
Precipitation last hour: 0.06 inches
Temperature: 78.1 F (25.6 C)
Dew Point: 75.9 F (24.4 C)
Relative Humidity: 93%
Pressure (altimeter): 30 in. Hg (1015 hPa)
Pressure tendency: 0.01 inches (0.3 hPa) higher than three hours ago
ob: KPNS 290253Z 29005KT 8SM -RA FEW120 26/24 A3000 RMK AO2 LTG DSNT SE AND S SLP159 P0006 60009 T02560244 50003
cycle: 3

Station Type Date Time Source
KPNS TAF 2021/07/28 18:22 UTC NOAA

TAF KPNS 281720Z 2818/2918 15008KT P6SM SHRA VCTS BKN035 BKN090CB
FM282100 22006KT P6SM VCTS BKN100CB
FM290000 VRB03KT P6SM VCTS BKN100CB PROB30 2903/2906 P6SM TSRA OVC025CB
FM291500 30004KT P6SM SCT100

Example: see airport list